Time;durP1;ratioP1;P1;durP2;ratioP2;P2;SDS_P1;SDS_P2;PMS_P1;PMS_P2;Temp;Humidity;BMP_temperature;BMP_pressure;BME280_temperature;BME280_humidity;BME280_pressure;Samples;Min_cycle;Max_cycle;Signal;HPM_P1;HPM_P2
2024/01/09 05:32:48;;;;;;;0.17;0.17;;;1.00;64.00;;;;;;4949565;28;20066;-84
2024/01/09 05:35:14;;;;;;;0.20;0.20;;;1.00;64.00;;;;;;4955985;28;20043;-84
2024/01/09 05:37:40;;;;;;;0.10;0.10;;;1.00;63.70;;;;;;4955973;29;20035;-81
2024/01/09 05:40:06;;;;;;;0.15;0.15;;;1.00;63.60;;;;;;4955916;28;20031;-81
2024/01/09 05:42:32;;;;;;;0.10;0.10;;;1.00;63.70;;;;;;4954940;29;20138;-85
2024/01/09 05:44:57;;;;;;;0.20;0.20;;;1.10;63.40;;;;;;4945304;28;20667;-82
2024/01/09 05:47:23;;;;;;;0.10;0.10;;;1.00;63.30;;;;;;4975733;28;20118;-85
2024/01/09 05:49:48;;;;;;;0.15;0.15;;;1.10;63.60;;;;;;4946087;28;20027;-79
2024/01/09 05:52:14;;;;;;;0.10;0.10;;;1.20;63.40;;;;;;4971248;28;20034;-82
2024/01/09 05:54:45;;;;;;;0.20;0.20;;;1.10;63.40;;;;;;4975619;28;20030;-84
2024/01/09 05:57:11;;;;;;;0.20;0.20;;;1.10;63.80;;;;;;4973080;28;20538;-82
2024/01/09 05:59:36;;;;;;;0.20;0.20;;;1.00;63.40;;;;;;4937671;29;20054;-83
2024/01/09 06:02:02;;;;;;;0.20;0.20;;;1.00;63.70;;;;;;4954902;28;20038;-86
2024/01/09 06:04:28;;;;;;;0.20;0.20;;;1.00;63.40;;;;;;4956124;29;20586;-86
2024/01/09 06:06:53;;;;;;;0.20;0.20;;;1.00;63.60;;;;;;4955667;28;20020;-88
2024/01/09 06:09:19;;;;;;;0.10;0.10;;;0.90;63.60;;;;;;4956316;29;20070;-82
2024/01/09 06:11:45;;;;;;;0.20;0.20;;;0.80;63.80;;;;;;4942712;28;20091;-86
2024/01/09 06:14:10;;;;;;;0.10;0.10;;;0.90;64.00;;;;;;4959863;28;20031;-85
2024/01/09 06:16:36;;;;;;;0.10;0.10;;;0.90;64.30;;;;;;4937839;29;20030;-85
2024/01/09 06:19:01;;;;;;;0.20;0.20;;;0.70;64.30;;;;;;4955960;29;20038;-86
2024/01/09 06:21:27;;;;;;;0.10;0.10;;;0.80;64.90;;;;;;4954463;28;20044;-86
2024/01/09 06:23:52;;;;;;;0.15;0.15;;;0.80;64.70;;;;;;4955442;29;20027;-86
2024/01/09 06:26:18;;;;;;;0.20;0.20;;;0.90;64.70;;;;;;4937558;29;20047;-79
2024/01/09 06:28:44;;;;;;;0.20;0.20;;;0.90;64.60;;;;;;4953021;29;20027;-88
2024/01/09 06:31:09;;;;;;;0.20;0.20;;;0.90;64.70;;;;;;4953773;29;20043;-81
2024/01/09 06:33:35;;;;;;;0.20;0.20;;;0.70;65.30;;;;;;4938509;29;20085;-88
2024/01/09 06:36:01;;;;;;;0.10;0.10;;;0.80;65.70;;;;;;4954589;29;20027;-89
2024/01/09 06:38:26;;;;;;;0.10;0.10;;;0.80;65.70;;;;;;4938715;29;20031;-87
2024/01/09 06:40:52;;;;;;;0.10;0.10;;;0.80;65.80;;;;;;4938894;29;20046;-88
2024/01/09 06:43:18;;;;;;;0.20;0.20;;;0.90;65.90;;;;;;4938334;29;20095;-88
2024/01/09 06:45:43;;;;;;;0.20;0.20;;;0.80;66.20;;;;;;4955212;29;20027;-87
2024/01/09 06:48:09;;;;;;;0.13;0.13;;;0.80;66.50;;;;;;4942134;29;20050;-87
2024/01/09 06:50:35;;;;;;;0.20;0.20;;;0.70;66.70;;;;;;4970237;28;20027;-87
2024/01/09 06:53:01;;;;;;;0.20;0.20;;;0.70;67.10;;;;;;4961359;28;20054;-87
2024/01/09 06:55:27;;;;;;;0.20;0.20;;;0.60;67.40;;;;;;4965510;28;20038;-88
2024/01/09 06:57:53;;;;;;;0.20;0.20;;;0.60;67.50;;;;;;4942179;29;20031;-88
2024/01/09 07:00:18;;;;;;;0.20;0.20;;;0.50;67.60;;;;;;4956983;28;20114;-81
2024/01/09 07:02:44;;;;;;;0.10;0.10;;;0.50;67.80;;;;;;4958086;28;20606;-86
2024/01/09 07:05:10;;;;;;;0.10;0.10;;;0.40;68.20;;;;;;4959686;29;20420;-86
2024/01/09 07:07:36;;;;;;;0.20;0.20;;;0.50;68.20;;;;;;4959409;28;20063;-87
2024/01/09 07:10:02;;;;;;;0.10;0.10;;;0.50;68.40;;;;;;4959069;29;20680;-87
2024/01/09 07:12:27;;;;;;;0.20;0.20;;;0.50;68.70;;;;;;4942110;29;20673;-86
2024/01/09 07:14:53;;;;;;;0.20;0.20;;;0.40;68.80;;;;;;4941874;29;20027;-86
2024/01/09 07:17:19;;;;;;;0.20;0.20;;;0.50;68.90;;;;;;4942134;29;20051;-86
2024/01/09 07:19:44;;;;;;;0.20;0.20;;;0.40;69.10;;;;;;4941419;29;20527;-86
2024/01/09 07:22:10;;;;;;;0.20;0.20;;;0.40;69.10;;;;;;4959056;29;20110;-86
2024/01/09 07:24:36;;;;;;;0.10;0.10;;;0.30;69.50;;;;;;4958563;28;20570;-86
2024/01/09 07:27:02;;;;;;;0.10;0.10;;;0.20;69.80;;;;;;4959112;29;20031;-87
2024/01/09 07:29:27;;;;;;;0.10;0.10;;;0.20;69.90;;;;;;4941539;29;20030;-86
2024/01/09 07:31:53;;;;;;;0.13;0.13;;;0.20;70.00;;;;;;4943874;29;20051;-86
2024/01/09 07:34:18;;;;;;;0.10;0.10;;;0.20;70.00;;;;;;4958930;28;20015;-86
2024/01/09 07:36:44;;;;;;;0.15;0.15;;;0.20;70.10;;;;;;4957395;28;20074;-86
2024/01/09 07:39:11;;;;;;;0.20;0.20;;;0.20;70.20;;;;;;4958508;29;20081;-86
2024/01/09 07:41:37;;;;;;;0.20;0.20;;;0.20;70.30;;;;;;4958699;28;20086;-85
2024/01/09 07:44:03;;;;;;;0.20;0.20;;;0.20;70.60;;;;;;4958215;28;20035;-86
2024/01/09 07:46:29;;;;;;;0.20;0.20;;;0.20;70.70;;;;;;4941556;29;20114;-86
2024/01/09 07:48:54;;;;;;;0.20;0.20;;;0.20;70.80;;;;;;4941069;29;20059;-85
2024/01/09 07:51:20;;;;;;;0.10;0.10;;;0.20;71.00;;;;;;4958753;29;20038;-86
2024/01/09 07:53:45;;;;;;;0.20;0.20;;;0.20;71.10;;;;;;4941584;29;20035;-86
2024/01/09 07:56:18;;;;;;;0.10;0.10;;;0.10;71.30;;;;;;4941475;29;20186;-86
2024/01/09 07:58:44;;;;;;;0.20;0.20;;;0.10;71.60;;;;;;4957019;28;20035;-85
2024/01/09 08:01:14;;;;;;;0.15;0.15;;;0.00;71.70;;;;;;4958475;29;20035;-86
2024/01/09 08:03:40;;;;;;;0.17;0.17;;;0.00;71.90;;;;;;4940528;29;20032;-86
2024/01/09 08:06:14;;;;;;;0.20;0.20;;;0.00;72.10;;;;;;4958550;29;20077;-86
2024/01/09 08:08:40;;;;;;;0.20;0.20;;;0.00;72.40;;;;;;4957113;29;20030;-86
2024/01/09 08:11:06;;;;;;;0.20;0.20;;;0.00;72.50;;;;;;4958055;29;20040;-86
2024/01/09 08:13:32;;;;;;;0.10;0.10;;;0.00;72.60;;;;;;4958090;28;20027;-86
2024/01/09 08:15:58;;;;;;;0.20;0.20;;;0.00;72.70;;;;;;4958188;29;20435;-86
2024/01/09 08:18:23;;;;;;;0.10;0.10;;;0.00;72.80;;;;;;4941113;28;20563;-86
2024/01/09 08:20:49;;;;;;;0.20;0.20;;;0.00;72.90;;;;;;4968072;28;20038;-86
2024/01/09 08:23:15;;;;;;;0.13;0.13;;;0.00;72.90;;;;;;4940679;29;20168;-86
2024/01/09 08:25:41;;;;;;;0.20;0.20;;;0.00;73.10;;;;;;4957565;29;20554;-86
2024/01/09 08:28:08;;;;;;;0.20;0.20;;;0.00;73.20;;;;;;4957919;28;20024;-85
2024/01/09 08:30:34;;;;;;;0.10;0.10;;;0.10;73.30;;;;;;4957097;28;20046;-85
2024/01/09 08:32:59;;;;;;;0.20;0.20;;;0.10;73.40;;;;;;4940953;29;20119;-86
2024/01/09 08:35:25;;;;;;;0.20;0.20;;;0.10;73.40;;;;;;4958230;28;20030;-86
2024/01/09 08:37:51;;;;;;;0.17;0.17;;;0.10;73.50;;;;;;4957997;29;20027;-86
2024/01/09 08:40:16;;;;;;;0.20;0.20;;;0.00;73.70;;;;;;4957289;28;20035;-86
2024/01/09 08:42:42;;;;;;;0.10;0.10;;;0.10;73.70;;;;;;4940415;29;20419;-86
2024/01/09 08:45:08;;;;;;;0.20;0.20;;;0.20;73.60;;;;;;4957716;28;20024;-86
2024/01/09 08:47:35;;;;;;;0.20;0.20;;;0.20;73.70;;;;;;4959948;28;20035;-86
2024/01/09 08:50:02;;;;;;;0.20;0.20;;;0.20;73.60;;;;;;4948084;28;20018;-87
2024/01/09 08:52:27;;;;;;;0.15;0.15;;;0.10;73.80;;;;;;4959447;28;20494;-86
2024/01/09 08:54:53;;;;;;;0.20;0.20;;;0.10;73.80;;;;;;4975910;28;20031;-86
2024/01/09 08:57:20;;;;;;;0.20;0.20;;;0.20;73.80;;;;;;4953011;28;20042;-87
2024/01/09 08:59:47;;;;;;;0.20;0.20;;;0.20;73.80;;;;;;4973461;28;20019;-85
2024/01/09 09:02:12;;;;;;;0.13;0.13;;;0.20;73.80;;;;;;4940219;29;20035;-87
2024/01/09 09:04:38;;;;;;;0.20;0.20;;;0.10;74.00;;;;;;4955954;29;20053;-86
2024/01/09 09:07:04;;;;;;;0.20;0.20;;;0.10;74.20;;;;;;4956908;28;20028;-86
2024/01/09 09:09:30;;;;;;;0.20;0.20;;;0.10;74.20;;;;;;4957296;29;20027;-86
2024/01/09 09:12:00;;;;;;;0.20;0.20;;;0.10;74.20;;;;;;4956293;28;20029;-85
2024/01/09 09:14:25;;;;;;;0.10;0.10;;;0.20;74.30;;;;;;4957218;29;20031;-85
2024/01/09 09:16:51;;;;;;;0.20;0.20;;;0.20;74.40;;;;;;4956555;28;20030;-85
2024/01/09 09:19:17;;;;;;;0.20;0.20;;;0.20;74.40;;;;;;4957214;29;20027;-86
2024/01/09 09:21:43;;;;;;;0.20;0.20;;;0.10;74.40;;;;;;4939747;29;20117;-85
2024/01/09 09:24:09;;;;;;;0.20;0.20;;;0.00;74.60;;;;;;4939219;29;20074;-85
2024/01/09 09:26:35;;;;;;;0.20;0.20;;;0.00;75.30;;;;;;4956940;29;20106;-86
2024/01/09 09:29:01;;;;;;;0.20;0.20;;;0.00;75.30;;;;;;4939566;29;20027;-85
2024/01/09 09:31:27;;;;;;;0.20;0.20;;;0.10;75.30;;;;;;4956620;29;20134;-85
2024/01/09 09:33:55;;;;;;;0.20;0.20;;;0.20;75.00;;;;;;4939409;29;20038;-86
2024/01/09 09:36:20;;;;;;;0.20;0.20;;;0.30;74.90;;;;;;4956896;28;20023;-86
2024/01/09 09:38:46;;;;;;;0.20;0.20;;;0.40;75.00;;;;;;4971216;28;20098;-85
2024/01/09 09:41:15;;;;;;;0.20;0.20;;;0.30;75.10;;;;;;4943559;29;20028;-85
2024/01/09 09:43:57;;;;;;;0.20;0.20;;;0.30;75.40;;;;;;4927319;29;20065;-85
2024/01/09 09:46:28;;;;;;;0.20;0.20;;;0.40;75.30;;;;;;4939400;29;20464;-85
2024/01/09 09:48:55;;;;;;;0.10;0.10;;;0.40;75.50;;;;;;4956644;28;20030;-85
2024/01/09 09:51:21;;;;;;;0.20;0.20;;;0.40;75.40;;;;;;4939266;29;20118;-86
2024/01/09 09:53:47;;;;;;;0.20;0.20;;;0.50;75.40;;;;;;4956159;28;20035;-86
2024/01/09 09:56:13;;;;;;;0.10;0.10;;;0.70;75.40;;;;;;4955911;29;20536;-85
2024/01/09 09:58:40;;;;;;;0.10;0.10;;;0.70;75.10;;;;;;4939393;29;20098;-85
2024/01/09 10:01:10;;;;;;;0.10;0.10;;;0.80;75.00;;;;;;4949802;29;20031;-85
2024/01/09 10:03:38;;;;;;;0.20;0.20;;;0.80;74.80;;;;;;4938983;29;20544;-85
2024/01/09 10:06:05;;;;;;;0.15;0.15;;;0.90;74.60;;;;;;4970454;28;20114;-86
2024/01/09 10:08:35;;;;;;;0.20;0.20;;;0.90;74.90;;;;;;4938907;29;20098;-84
2024/01/09 10:11:04;;;;;;;0.20;0.20;;;0.90;74.80;;;;;;4956406;29;20082;-84
2024/01/09 10:13:30;;;;;;;0.20;0.20;;;1.00;74.70;;;;;;4956936;28;20472;-83
2024/01/09 10:16:01;;;;;;;0.20;0.20;;;1.00;74.60;;;;;;4956098;29;20027;-84
2024/01/09 10:18:31;;;;;;;0.15;0.15;;;1.10;74.70;;;;;;4956272;29;20027;-84
2024/01/09 10:20:58;;;;;;;0.20;0.20;;;1.20;74.50;;;;;;4938542;29;20126;-84
2024/01/09 10:23:25;;;;;;;0.15;0.15;;;1.30;74.40;;;;;;4959086;28;20415;-84
2024/01/09 10:25:51;;;;;;;0.10;0.10;;;1.30;74.40;;;;;;4959969;29;20487;-84
2024/01/09 10:28:17;;;;;;;0.20;0.20;;;1.30;74.30;;;;;;4959934;28;20062;-84
2024/01/09 10:30:43;;;;;;;0.20;0.20;;;1.40;74.20;;;;;;4959826;29;20066;-84
2024/01/09 10:33:11;;;;;;;0.20;0.20;;;1.40;74.10;;;;;;4959938;28;20035;-84
2024/01/09 10:35:37;;;;;;;0.20;0.20;;;1.30;74.00;;;;;;4958170;29;20035;-84
2024/01/09 10:38:03;;;;;;;0.20;0.20;;;1.50;74.10;;;;;;4942878;29;20031;-83
2024/01/09 10:40:28;;;;;;;0.20;0.20;;;1.50;74.10;;;;;;4942777;29;20038;-84
2024/01/09 10:42:54;;;;;;;0.20;0.20;;;1.60;73.60;;;;;;4959432;28;20713;-84
2024/01/09 10:45:24;;;;;;;0.20;0.20;;;1.70;73.80;;;;;;4959951;29;20027;-84
2024/01/09 10:47:56;;;;;;;0.20;0.20;;;1.60;73.60;;;;;;4942082;29;20050;-84
2024/01/09 10:50:22;;;;;;;0.20;0.20;;;1.70;73.70;;;;;;4972883;28;20030;-84
2024/01/09 10:52:48;;;;;;;0.20;0.20;;;1.90;73.20;;;;;;4973214;28;20027;-84
2024/01/09 10:55:18;;;;;;;0.13;0.13;;;2.10;73.00;;;;;;4944876;29;20578;-83
2024/01/09 10:57:47;;;;;;;0.10;0.10;;;2.00;72.90;;;;;;4959008;28;20073;-84
2024/01/09 11:00:13;;;;;;;0.10;0.10;;;2.10;73.10;;;;;;4959360;28;20031;-84
2024/01/09 11:02:39;;;;;;;0.10;0.10;;;2.10;72.80;;;;;;4958392;28;20066;-84
2024/01/09 11:05:07;;;;;;;0.17;0.17;;;2.20;72.10;;;;;;4958261;29;20027;-83
2024/01/09 11:07:33;;;;;;;0.20;0.20;;;2.20;72.10;;;;;;4957431;28;20031;-84
2024/01/09 11:10:00;;;;;;;0.20;0.20;;;1.90;71.70;;;;;;4942553;29;20102;-84
2024/01/09 11:12:38;;;;;;;0.20;0.20;;;1.70;72.20;;;;;;4941384;29;20414;-84
2024/01/09 11:15:07;;;;;;;0.20;0.20;;;1.80;73.10;;;;;;4959588;29;20024;-84
2024/01/09 11:17:35;;;;;;;0.20;0.20;;;2.10;72.80;;;;;;4958032;28;20039;-84
2024/01/09 11:20:05;;;;;;;0.10;0.10;;;2.20;72.40;;;;;;4958721;29;20563;-84
2024/01/09 11:22:36;;;;;;;0.15;0.15;;;2.20;71.50;;;;;;4941823;29;20038;-84
2024/01/09 11:25:12;;;;;;;0.10;0.10;;;2.20;71.60;;;;;;4958815;29;20035;-84
2024/01/09 11:27:41;;;;;;;0.20;0.20;;;2.30;71.70;;;;;;4958998;29;20023;-84
2024/01/09 11:30:09;;;;;;;0.10;0.10;;;2.30;71.80;;;;;;4941245;29;20033;-84
2024/01/09 11:32:35;;;;;;;0.20;0.20;;;2.20;71.10;;;;;;4958409;28;20043;-83
2024/01/09 11:35:14;;;;;;;0.20;0.20;;;2.20;71.80;;;;;;4958996;28;20031;-84
2024/01/09 11:37:42;;;;;;;0.10;0.10;;;2.30;71.40;;;;;;4968085;28;20038;-84
2024/01/09 11:40:09;;;;;;;0.10;0.10;;;2.40;71.60;;;;;;4972791;28;20024;-84
2024/01/09 11:42:43;;;;;;;0.20;0.20;;;2.30;70.60;;;;;;4958378;28;20035;-84
2024/01/09 11:45:09;;;;;;;0.10;0.10;;;2.20;71.30;;;;;;4941078;29;20031;-84
2024/01/09 11:47:42;;;;;;;0.20;0.20;;;2.20;71.80;;;;;;4958964;29;20382;-84
2024/01/09 11:50:10;;;;;;;0.20;0.20;;;2.20;71.60;;;;;;4941267;29;20024;-84
2024/01/09 11:52:37;;;;;;;0.10;0.10;;;2.20;71.10;;;;;;4958707;29;20039;-84
2024/01/09 11:55:10;;;;;;;0.10;0.10;;;2.10;72.10;;;;;;4941463;29;20059;-84
2024/01/09 11:57:38;;;;;;;0.20;0.20;;;2.10;71.00;;;;;;4940575;29;20031;-83
2024/01/09 12:00:06;;;;;;;0.13;0.13;;;2.00;71.50;;;;;;4958435;29;20023;-84
2024/01/09 12:02:33;;;;;;;0.20;0.20;;;2.20;71.90;;;;;;4941249;29;20059;-84
2024/01/09 12:05:00;;;;;;;0.20;0.20;;;2.30;71.20;;;;;;4957312;29;20055;-84
2024/01/09 12:07:27;;;;;;;0.17;0.17;;;2.50;70.60;;;;;;4958895;28;20037;-84
2024/01/09 12:09:53;;;;;;;0.20;0.20;;;2.40;70.40;;;;;;4959177;28;20058;-84
2024/01/09 12:12:25;;;;;;;0.20;0.20;;;2.20;70.20;;;;;;4957663;28;20035;-84
2024/01/09 12:14:55;;;;;;;0.20;0.20;;;2.20;70.10;;;;;;4958476;29;20557;-84
2024/01/09 12:17:23;;;;;;;0.20;0.20;;;2.20;69.60;;;;;;4958253;28;20547;-84
2024/01/09 12:19:51;;;;;;;0.20;0.20;;;2.30;69.80;;;;;;4940570;29;20024;-84
2024/01/09 12:22:19;;;;;;;0.20;0.20;;;2.40;69.40;;;;;;4958097;29;20098;-84
2024/01/09 12:24:45;;;;;;;0.20;0.20;;;2.60;68.80;;;;;;4957658;28;20023;-84
2024/01/09 12:27:11;;;;;;;0.20;0.20;;;2.70;68.80;;;;;;4957830;29;20031;-84
2024/01/09 12:29:37;;;;;;;0.10;0.10;;;2.80;68.60;;;;;;4957864;28;20038;-84
2024/01/09 12:32:04;;;;;;;0.10;0.10;;;2.80;68.20;;;;;;4957857;28;20539;-84
2024/01/09 12:34:29;;;;;;;0.10;0.10;;;2.90;67.60;;;;;;4957465;28;20051;-84
2024/01/09 12:36:55;;;;;;;0.10;0.10;;;2.90;67.40;;;;;;4957919;29;20027;-83
2024/01/09 12:39:23;;;;;;;0.20;0.20;;;2.90;67.80;;;;;;4940805;29;20439;-84
2024/01/09 12:41:53;;;;;;;0.13;0.13;;;2.80;67.00;;;;;;4957291;29;20028;-84
2024/01/09 12:44:20;;;;;;;0.10;0.10;;;2.80;67.40;;;;;;4957551;28;20023;-84
2024/01/09 12:46:47;;;;;;;0.13;0.13;;;2.70;67.10;;;;;;4941702;29;20886;-84
2024/01/09 12:49:13;;;;;;;0.10;0.10;;;2.60;66.90;;;;;;4960208;28;20019;-84
2024/01/09 12:51:38;;;;;;;0.20;0.20;;;2.50;66.40;;;;;;4940511;29;20027;-84
2024/01/09 12:54:04;;;;;;;0.20;0.20;;;2.30;67.00;;;;;;4957051;29;20046;-84
2024/01/09 12:56:30;;;;;;;0.20;0.20;;;2.30;67.60;;;;;;4951109;28;20038;-84
2024/01/09 12:58:55;;;;;;;0.10;0.10;;;2.30;68.80;;;;;;4970583;28;20412;-84
2024/01/09 13:01:21;;;;;;;0.10;0.10;;;2.30;68.30;;;;;;4957368;28;20038;-84
2024/01/09 13:03:47;;;;;;;0.10;0.10;;;2.30;68.10;;;;;;4955389;29;20031;-84
2024/01/09 13:06:13;;;;;;;0.10;0.10;;;2.30;68.10;;;;;;4929119;29;20031;-84
2024/01/09 13:08:40;;;;;;;0.10;0.10;;;2.20;67.70;;;;;;4937108;29;20027;-84
2024/01/09 13:11:07;;;;;;;0.17;0.17;;;1.90;68.30;;;;;;4938107;29;20159;-82
2024/01/09 13:13:34;;;;;;;0.20;0.20;;;1.90;68.60;;;;;;4936699;29;20128;-88
2024/01/09 13:16:03;;;;;;;0.15;0.15;;;2.00;68.70;;;;;;4939610;29;20036;-87
2024/01/09 13:18:29;;;;;;;0.10;0.10;;;2.10;68.50;;;;;;4936906;29;20036;-87
2024/01/09 13:20:55;;;;;;;0.10;0.10;;;2.20;68.20;;;;;;4939524;28;20059;-82
2024/01/09 13:23:25;;;;;;;0.10;0.10;;;2.10;67.80;;;;;;4939614;29;20051;-82
2024/01/09 13:25:52;;;;;;;0.20;0.20;;;2.10;67.30;;;;;;4956496;28;20031;-82
2024/01/09 13:28:17;;;;;;;0.20;0.20;;;2.10;67.90;;;;;;4950673;28;20385;-82
2024/01/09 13:30:43;;;;;;;0.20;0.20;;;2.00;67.50;;;;;;4931267;29;20130;-82
2024/01/09 13:33:09;;;;;;;0.20;0.20;;;2.00;68.10;;;;;;4939262;29;20030;-82
2024/01/09 13:35:36;;;;;;;0.10;0.10;;;2.00;68.00;;;;;;4971113;28;20050;-82
2024/01/09 13:38:06;;;;;;;0.20;0.20;;;2.10;68.20;;;;;;4956837;28;20031;-82
2024/01/09 13:40:35;;;;;;;0.20;0.20;;;2.20;67.30;;;;;;4952085;29;20039;-82
2024/01/09 13:43:03;;;;;;;0.10;0.10;;;2.30;66.70;;;;;;4961883;28;20038;-82
2024/01/09 13:45:29;;;;;;;0.10;0.10;;;2.40;66.30;;;;;;4959149;28;20038;-81
2024/01/09 13:47:55;;;;;;;0.20;0.20;;;2.30;65.90;;;;;;4956800;28;20657;-82
2024/01/09 13:50:20;;;;;;;0.20;0.20;;;2.40;65.80;;;;;;4940936;29;20027;-82
2024/01/09 13:52:46;;;;;;;0.10;0.10;;;2.40;65.70;;;;;;4957771;28;20031;-82
2024/01/09 13:55:12;;;;;;;0.10;0.10;;;2.40;65.50;;;;;;4958501;29;20113;-82
2024/01/09 13:57:44;;;;;;;0.20;0.20;;;2.30;65.00;;;;;;4956868;28;20028;-82
2024/01/09 14:00:14;;;;;;;0.20;0.20;;;2.20;64.60;;;;;;4943066;28;20483;-81
2024/01/09 14:02:40;;;;;;;0.20;0.20;;;2.20;64.80;;;;;;4946546;29;20039;-82
2024/01/09 14:05:09;;;;;;;0.20;0.20;;;2.30;65.30;;;;;;4958157;29;20042;-81
2024/01/09 14:07:38;;;;;;;0.20;0.20;;;2.20;64.50;;;;;;4958155;28;20015;-82
2024/01/09 14:10:05;;;;;;;0.20;0.20;;;2.10;64.50;;;;;;4956542;28;20031;-81
2024/01/09 14:12:34;;;;;;;0.20;0.20;;;1.90;64.70;;;;;;4940919;29;20139;-81
2024/01/09 14:15:02;;;;;;;0.10;0.10;;;1.90;64.50;;;;;;4958356;29;20110;-81
2024/01/09 14:17:28;;;;;;;0.20;0.20;;;2.10;65.20;;;;;;4940535;29;20037;-81
2024/01/09 14:19:53;;;;;;;0.20;0.20;;;2.20;64.60;;;;;;4958126;29;20114;-81
2024/01/09 14:22:20;;;;;;;0.20;0.20;;;2.40;64.40;;;;;;4958172;28;20034;-82
2024/01/09 14:24:46;;;;;;;0.10;0.10;;;2.50;63.80;;;;;;4957448;29;20031;-81
2024/01/09 14:27:12;;;;;;;0.10;0.10;;;2.50;63.50;;;;;;4957905;28;20023;-81
2024/01/09 14:29:38;;;;;;;0.10;0.10;;;2.50;63.00;;;;;;4957406;29;20527;-81
2024/01/09 14:32:04;;;;;;;0.10;0.10;;;2.60;63.10;;;;;;4957784;28;20451;-82
2024/01/09 14:34:31;;;;;;;0.20;0.20;;;2.60;62.40;;;;;;4957848;29;20034;-81
2024/01/09 14:36:57;;;;;;;0.10;0.10;;;2.60;62.40;;;;;;4972448;28;20027;-82
2024/01/09 14:39:22;;;;;;;0.10;0.10;;;2.60;62.70;;;;;;4943109;29;20032;-81
2024/01/09 14:41:49;;;;;;;0.20;0.20;;;2.70;63.10;;;;;;4957977;28;20384;-81
2024/01/09 14:44:14;;;;;;;0.20;0.20;;;2.60;62.60;;;;;;4956217;29;20046;-81
2024/01/09 14:46:40;;;;;;;0.10;0.10;;;2.60;62.70;;;;;;4960101;28;20479;-82
2024/01/09 14:49:06;;;;;;;0.10;0.10;;;2.50;62.90;;;;;;4940932;29;20476;-81
2024/01/09 14:51:36;;;;;;;0.20;0.20;;;2.40;63.00;;;;;;4957266;28;20031;-81
2024/01/09 14:54:01;;;;;;;0.10;0.10;;;2.50;62.80;;;;;;4940831;29;20102;-81
2024/01/09 14:56:27;;;;;;;0.10;0.10;;;2.50;62.60;;;;;;4933913;29;20039;-81
2024/01/09 14:58:53;;;;;;;0.20;0.20;;;2.50;63.30;;;;;;4948770;28;20091;-81
2024/01/09 15:01:18;;;;;;;0.10;0.10;;;2.30;62.70;;;;;;4958771;28;20031;-81
2024/01/09 15:03:45;;;;;;;0.20;0.20;;;2.30;63.20;;;;;;4957575;29;20407;-81
2024/01/09 15:06:14;;;;;;;0.10;0.10;;;2.20;63.50;;;;;;4957678;28;20012;-81
2024/01/09 15:08:39;;;;;;;0.10;0.10;;;2.20;63.40;;;;;;4958187;28;20035;-81
2024/01/09 15:11:08;;;;;;;0.20;0.20;;;2.20;64.10;;;;;;4961496;28;20509;-81
2024/01/09 15:13:34;;;;;;;0.10;0.10;;;2.10;63.80;;;;;;4959369;29;20518;-81
2024/01/09 15:15:59;;;;;;;0.20;0.20;;;2.10;64.60;;;;;;4944323;29;20066;-81
2024/01/09 15:18:25;;;;;;;0.20;0.20;;;2.00;64.70;;;;;;4954964;28;20497;-81
2024/01/09 15:20:51;;;;;;;0.17;0.17;;;1.90;64.80;;;;;;4950453;28;20030;-81
2024/01/09 15:23:16;;;;;;;0.20;0.20;;;2.00;65.00;;;;;;4960959;29;20110;-81
2024/01/09 15:25:42;;;;;;;0.20;0.20;;;2.10;64.50;;;;;;4960647;29;20391;-81
2024/01/09 15:28:08;;;;;;;0.10;0.10;;;2.00;65.20;;;;;;4960779;29;20038;-81
2024/01/09 15:30:34;;;;;;;0.10;0.10;;;2.00;65.20;;;;;;4944524;28;20546;-81
2024/01/09 15:32:59;;;;;;;0.13;0.13;;;2.00;66.00;;;;;;4954691;28;20031;-80
2024/01/09 15:35:25;;;;;;;0.20;0.20;;;2.00;66.60;;;;;;4937997;29;20035;-81
2024/01/09 15:37:51;;;;;;;0.20;0.20;;;2.10;66.40;;;;;;4941788;29;20640;-80
2024/01/09 15:40:17;;;;;;;0.20;0.20;;;2.00;66.30;;;;;;4952575;29;20468;-81
2024/01/09 15:42:43;;;;;;;0.10;0.10;;;2.10;66.60;;;;;;4964357;28;20106;-81
2024/01/09 15:45:14;;;;;;;0.17;0.17;;;2.00;66.40;;;;;;4960775;28;20078;-80
2024/01/09 15:47:40;;;;;;;0.10;0.10;;;2.00;67.00;;;;;;4959873;28;20070;-80
2024/01/09 15:50:05;;;;;;;0.10;0.10;;;1.90;67.20;;;;;;4960513;29;20023;-80
2024/01/09 15:52:31;;;;;;;0.20;0.20;;;2.00;67.20;;;;;;4943613;29;20031;-80
2024/01/09 15:54:57;;;;;;;0.10;0.10;;;1.90;67.30;;;;;;4960291;28;20082;-81
2024/01/09 15:57:23;;;;;;;0.20;0.20;;;2.00;67.10;;;;;;4942981;29;20075;-80
2024/01/09 15:59:48;;;;;;;0.10;0.10;;;1.80;66.70;;;;;;4960434;28;20664;-80
2024/01/09 16:02:14;;;;;;;0.20;0.20;;;1.90;67.20;;;;;;4959760;29;20047;-80
2024/01/09 16:04:42;;;;;;;0.10;0.10;;;1.90;67.30;;;;;;4960259;28;20047;-80
2024/01/09 16:07:08;;;;;;;0.10;0.10;;;2.00;66.90;;;;;;4962310;28;20023;-80
2024/01/09 16:09:34;;;;;;;0.20;0.20;;;1.90;67.30;;;;;;4960323;28;20015;-80
2024/01/09 16:12:00;;;;;;;0.20;0.20;;;1.80;67.20;;;;;;4959788;29;20098;-80
2024/01/09 16:14:26;;;;;;;0.20;0.20;;;1.80;67.20;;;;;;4958612;29;20061;-80
2024/01/09 16:16:53;;;;;;;0.10;0.10;;;1.80;67.00;;;;;;4959657;28;20031;-80
2024/01/09 16:19:19;;;;;;;0.20;0.20;;;1.80;67.20;;;;;;4959699;28;20086;-80
2024/01/09 16:21:45;;;;;;;0.10;0.10;;;1.90;67.40;;;;;;4959427;28;20031;-80
2024/01/09 16:24:10;;;;;;;0.17;0.17;;;1.80;67.00;;;;;;4958143;29;20120;-80
2024/01/09 16:26:37;;;;;;;0.17;0.17;;;1.70;66.90;;;;;;4959962;28;20376;-80
2024/01/09 16:29:03;;;;;;;0.15;0.15;;;1.70;67.10;;;;;;4942273;29;20035;-80
2024/01/09 16:31:29;;;;;;;0.10;0.10;;;1.70;66.60;;;;;;4961560;28;20041;-80
2024/01/09 16:33:55;;;;;;;0.10;0.10;;;1.70;67.40;;;;;;4959150;28;20063;-80
2024/01/09 16:36:22;;;;;;;0.20;0.20;;;1.70;67.20;;;;;;4959754;29;20027;-80
2024/01/09 16:38:50;;;;;;;0.13;0.13;;;1.80;67.40;;;;;;4959964;28;20030;-80
2024/01/09 16:41:16;;;;;;;0.20;0.20;;;1.70;67.80;;;;;;4962070;28;20403;-81
2024/01/09 16:43:42;;;;;;;0.20;0.20;;;1.80;67.40;;;;;;4959013;28;20035;-80
2024/01/09 16:46:07;;;;;;;0.20;0.20;;;1.80;67.40;;;;;;4959705;29;20106;-80
2024/01/09 16:48:34;;;;;;;0.10;0.10;;;1.70;67.00;;;;;;4941794;29;20091;-80
2024/01/09 16:51:00;;;;;;;0.17;0.17;;;1.80;67.10;;;;;;4959512;29;20026;-80
2024/01/09 16:53:26;;;;;;;0.10;0.10;;;1.80;67.50;;;;;;4959459;28;20111;-81
2024/01/09 16:55:54;;;;;;;0.10;0.10;;;1.80;67.20;;;;;;4958765;29;20503;-81
2024/01/09 16:58:23;;;;;;;0.20;0.20;;;1.80;67.10;;;;;;4960086;28;20035;-81
2024/01/09 17:00:49;;;;;;;0.20;0.20;;;1.80;67.40;;;;;;4965063;28;20521;-79
2024/01/09 17:03:16;;;;;;;0.20;0.20;;;1.90;67.50;;;;;;4958206;28;20050;-80
2024/01/09 17:05:42;;;;;;;0.20;0.20;;;1.80;67.30;;;;;;4941682;29;20542;-80
2024/01/09 17:08:08;;;;;;;0.13;0.13;;;1.80;67.90;;;;;;4959024;28;20024;-80
2024/01/09 17:10:34;;;;;;;0.20;0.20;;;1.80;68.20;;;;;;4942155;29;20039;-80
2024/01/09 17:13:00;;;;;;;0.10;0.10;;;1.80;68.10;;;;;;4958590;28;20906;-85
2024/01/09 17:15:26;;;;;;;0.10;0.10;;;1.70;67.70;;;;;;4939478;29;20046;-80
2024/01/09 17:17:56;;;;;;;0.20;0.20;;;1.80;67.80;;;;;;4937087;28;20035;-81
2024/01/09 17:20:23;;;;;;;0.10;0.10;;;1.70;67.70;;;;;;4940296;29;20054;-80
2024/01/09 17:22:49;;;;;;;0.10;0.10;;;1.70;68.00;;;;;;4957375;28;20952;-80
2024/01/09 17:25:18;;;;;;;0.10;0.10;;;1.70;67.90;;;;;;4973010;28;20063;-81
2024/01/09 17:27:44;;;;;;;0.20;0.20;;;1.70;68.00;;;;;;4957361;28;20110;-85
2024/01/09 17:30:11;;;;;;;0.10;0.10;;;1.70;68.00;;;;;;4957471;28;20487;-82
2024/01/09 17:32:36;;;;;;;0.20;0.20;;;1.60;68.40;;;;;;4972960;28;20047;-80
2024/01/09 17:35:03;;;;;;;0.13;0.13;;;1.60;67.70;;;;;;4961017;28;20094;-80
2024/01/09 17:37:30;;;;;;;0.20;0.20;;;1.40;67.80;;;;;;4961162;28;20031;-79
2024/01/09 17:39:56;;;;;;;0.20;0.20;;;1.40;68.50;;;;;;4960835;28;20024;-82
2024/01/09 17:42:22;;;;;;;0.20;0.20;;;1.40;68.70;;;;;;4956828;28;21714;-81
2024/01/09 17:44:48;;;;;;;0.10;0.10;;;1.50;68.60;;;;;;4973133;28;20043;-82
2024/01/09 17:47:14;;;;;;;0.10;0.10;;;1.50;68.70;;;;;;4957070;28;20028;-80
2024/01/09 17:49:39;;;;;;;0.20;0.20;;;1.30;68.20;;;;;;4955678;28;20092;-81
2024/01/09 17:52:05;;;;;;;0.10;0.10;;;1.20;68.90;;;;;;4956351;29;20511;-81
2024/01/09 17:54:31;;;;;;;0.10;0.10;;;1.20;69.20;;;;;;4940677;29;20543;-79
2024/01/09 17:56:57;;;;;;;0.20;0.20;;;1.20;69.40;;;;;;4957933;29;20053;-80
2024/01/09 17:59:23;;;;;;;0.10;0.10;;;1.40;69.50;;;;;;4958701;28;20034;-81
2024/01/09 18:01:52;;;;;;;0.20;0.20;;;1.40;69.40;;;;;;4958292;28;20029;-81
2024/01/09 18:04:19;;;;;;;0.10;0.10;;;1.40;69.20;;;;;;4954674;29;20028;-81
2024/01/09 18:06:46;;;;;;;0.20;0.20;;;1.40;69.50;;;;;;4958277;28;20439;-79
2024/01/09 18:09:21;;;;;;;0.20;0.20;;;1.40;69.80;;;;;;4957676;28;20051;-85
2024/01/09 18:11:51;;;;;;;0.20;0.20;;;1.40;69.80;;;;;;4955866;28;20431;-90
2024/01/09 18:14:17;;;;;;;0.10;0.10;;;1.50;69.70;;;;;;4945313;28;20039;-85
2024/01/09 18:16:47;;;;;;;0.10;0.10;;;1.50;70.00;;;;;;4964497;28;20401;-89
2024/01/09 18:19:13;;;;;;;0.20;0.20;;;1.50;70.10;;;;;;4942415;28;20085;-89
2024/01/09 18:21:41;;;;;;;0.10;0.10;;;1.60;69.90;;;;;;4961869;28;20124;-90
2024/01/09 18:24:10;;;;;;;0.20;0.20;;;1.60;69.90;;;;;;4970978;28;20115;-82
2024/01/09 18:26:36;;;;;;;0.10;0.10;;;1.50;69.80;;;;;;4966638;28;20022;-82